createdAt,value
2018-01-03T00:00:59.218Z,86.4
2018-01-03T00:01:59.878Z,86.4
2018-01-03T00:03:00.539Z,86.5
2018-01-03T00:04:01.198Z,85.8
2018-01-03T00:05:01.857Z,85.8
2018-01-03T00:06:02.517Z,85.3
2018-01-03T00:07:03.177Z,85.6
2018-01-03T00:08:03.886Z,85.6
2018-01-03T00:09:04.544Z,85.9
2018-01-03T00:10:05.259Z,85.4
2018-01-03T00:11:05.864Z,85.1
2018-01-03T00:12:06.521Z,85.3
2018-01-03T00:13:07.179Z,85.2
2018-01-03T00:14:07.837Z,84.9
2018-01-03T00:15:08.497Z,85.3
2018-01-03T00:16:09.156Z,84.6
2018-01-03T00:17:09.816Z,85.0
2018-01-03T00:18:10.476Z,85.1
2018-01-03T00:19:11.135Z,85.4
2018-01-03T00:20:11.795Z,84.8
2018-01-03T00:21:12.455Z,84.7
2018-01-03T00:22:13.114Z,84.8
2018-01-03T00:23:13.774Z,85.2
2018-01-03T00:24:14.435Z,85.0
2018-01-03T00:25:15.093Z,84.9
2018-01-03T00:26:15.753Z,85.0
2018-01-03T00:27:16.414Z,84.8
2018-01-03T00:28:17.072Z,85.1
2018-01-03T00:29:17.733Z,84.8
2018-01-03T00:30:18.392Z,85.3
2018-01-03T00:31:19.052Z,85.0
2018-01-03T00:32:19.711Z,84.8
2018-01-03T00:33:20.369Z,84.7
2018-01-03T00:34:21.030Z,85.0
2018-01-03T00:35:21.689Z,85.1
2018-01-03T00:36:22.348Z,85.0
2018-01-03T00:37:23.008Z,85.0
2018-01-03T00:38:23.668Z,85.0
2018-01-03T00:39:24.328Z,84.1
2018-01-03T00:40:24.987Z,84.1
2018-01-03T00:41:25.646Z,84.5
2018-01-03T00:42:26.306Z,84.5
2018-01-03T00:43:26.966Z,85.0
2018-01-03T00:44:27.626Z,84.1
2018-01-03T00:45:28.285Z,84.6
2018-01-03T00:46:28.980Z,84.2
2018-01-03T00:47:29.641Z,83.8
2018-01-03T00:48:30.301Z,84.2
2018-01-03T00:49:30.962Z,84.0
2018-01-03T00:50:31.623Z,84.0
2018-01-03T00:51:32.284Z,83.9
2018-01-03T00:52:32.979Z,83.8
2018-01-03T00:53:33.638Z,83.7
2018-01-03T00:54:34.296Z,84.5
2018-01-03T00:55:34.953Z,83.8
2018-01-03T00:56:35.612Z,83.8
2018-01-03T00:57:36.268Z,84.6
2018-01-03T00:58:36.926Z,84.2
2018-01-03T00:59:37.584Z,84.4
2018-01-03T01:00:38.244Z,84.4
2018-01-03T01:01:38.902Z,84.3
2018-01-03T01:02:39.561Z,83.9
2018-01-03T01:03:40.220Z,84.3
2018-01-03T01:04:40.879Z,84.5
2018-01-03T01:05:41.538Z,84.3
2018-01-03T01:06:42.198Z,84.3
2018-01-03T01:07:42.857Z,84.3
2018-01-03T01:08:43.516Z,84.1
2018-01-03T01:09:44.175Z,84.0
2018-01-03T01:10:44.834Z,84.3
2018-01-03T01:11:45.498Z,84.3
2018-01-03T01:12:46.152Z,84.4
2018-01-03T01:13:46.861Z,84.0
2018-01-03T01:14:47.520Z,84.3
2018-01-03T01:15:48.180Z,84.4
2018-01-03T01:16:48.838Z,84.5
2018-01-03T01:17:49.498Z,84.4
2018-01-03T01:18:50.157Z,84.3
2018-01-03T01:19:50.816Z,85.2
2018-01-03T01:20:51.476Z,85.1
2018-01-03T01:21:52.136Z,84.9
2018-01-03T01:22:52.794Z,85.0
2018-01-03T01:23:53.453Z,84.8
2018-01-03T01:24:54.113Z,84.8
2018-01-03T01:25:54.773Z,84.9
2018-01-03T01:26:55.432Z,84.8
2018-01-03T01:27:56.092Z,85.1
2018-01-03T01:28:56.753Z,85.3
2018-01-03T01:29:57.412Z,84.9
2018-01-03T01:30:58.070Z,85.2
2018-01-03T01:31:58.729Z,85.4
2018-01-03T01:32:59.390Z,85.4
2018-01-03T01:34:00.051Z,84.9
2018-01-03T01:35:00.708Z,85.6
2018-01-03T01:36:01.368Z,85.5
2018-01-03T01:37:02.028Z,85.4
2018-01-03T01:38:02.686Z,85.8
2018-01-03T01:39:03.346Z,85.7
2018-01-03T01:40:04.005Z,85.8
2018-01-03T01:41:04.664Z,86.1
2018-01-03T01:42:05.323Z,86.4
2018-01-03T01:43:05.982Z,86.7
2018-01-03T01:44:06.641Z,86.7
2018-01-03T01:45:07.300Z,87.0
2018-01-03T01:46:07.964Z,87.0
2018-01-03T01:47:08.616Z,87.5
2018-01-03T01:48:09.274Z,87.4
2018-01-03T01:49:09.931Z,87.4
2018-01-03T01:50:10.591Z,87.2
2018-01-03T01:51:11.250Z,88.0
2018-01-03T01:52:11.909Z,87.2
2018-01-03T01:53:12.605Z,87.3
2018-01-03T01:54:13.264Z,87.0
2018-01-03T01:55:13.925Z,87.2
2018-01-03T01:56:14.585Z,87.2
2018-01-03T01:57:15.248Z,87.2
2018-01-03T01:58:15.905Z,87.2
2018-01-03T01:59:16.601Z,87.2
2018-01-03T02:00:17.259Z,87.7
2018-01-03T02:01:17.917Z,86.8
2018-01-03T02:02:18.575Z,87.0
2018-01-03T02:03:19.236Z,87.0
2018-01-03T02:04:19.891Z,86.9
2018-01-03T02:05:20.550Z,86.8
2018-01-03T02:06:21.207Z,87.1
2018-01-03T02:07:21.867Z,86.7
2018-01-03T02:08:22.524Z,86.4
2018-01-03T02:09:23.183Z,86.4
2018-01-03T02:10:23.842Z,86.3
2018-01-03T02:11:24.503Z,86.4
2018-01-03T02:12:25.161Z,86.3
2018-01-03T02:13:25.820Z,85.9
2018-01-03T02:14:26.483Z,86.3
2018-01-03T02:15:27.138Z,86.3
2018-01-03T02:16:27.797Z,86.1
2018-01-03T02:17:28.455Z,86.2
2018-01-03T02:18:29.114Z,86.1
2018-01-03T02:19:29.773Z,86.4
2018-01-03T02:20:30.432Z,86.8
2018-01-03T02:21:31.093Z,86.7
2018-01-03T02:22:31.751Z,86.3
2018-01-03T02:23:32.410Z,86.8
2018-01-03T02:24:33.070Z,87.4
2018-01-03T02:25:33.728Z,87.2
2018-01-03T02:26:34.387Z,87.4
2018-01-03T02:27:35.046Z,88.1
2018-01-03T02:28:35.705Z,88.4
2018-01-03T02:29:36.364Z,88.3
2018-01-03T02:30:37.023Z,89.0
2018-01-03T02:31:37.682Z,88.8
2018-01-03T02:32:38.342Z,89.0
2018-01-03T02:33:39.002Z,89.0
2018-01-03T02:34:39.662Z,89.4
2018-01-03T02:35:40.320Z,90.2
2018-01-03T02:36:40.985Z,90.0
2018-01-03T02:37:41.636Z,90.7
2018-01-03T02:38:42.294Z,90.8
2018-01-03T02:39:42.951Z,90.8
2018-01-03T02:40:43.611Z,91.9
2018-01-03T02:41:44.269Z,92.1
2018-01-03T02:42:44.929Z,92.2
2018-01-03T02:43:45.592Z,92.7
2018-01-03T02:44:46.247Z,92.3
2018-01-03T02:45:46.907Z,92.7
2018-01-03T02:46:47.594Z,93.7
2018-01-03T02:47:48.250Z,93.5
2018-01-03T02:48:48.909Z,95.3
2018-01-03T02:49:49.567Z,96.0
2018-01-03T02:50:50.225Z,95.0
2018-01-03T02:51:50.884Z,97.0
2018-01-03T02:52:51.541Z,97.4
2018-01-03T02:53:52.199Z,96.8
2018-01-03T02:54:52.858Z,97.2
2018-01-03T02:55:53.516Z,98.1
2018-01-03T02:56:54.176Z,98.0
2018-01-03T02:57:54.870Z,98.3
2018-01-03T02:58:55.530Z,98.7
2018-01-03T02:59:56.187Z,99.0
2018-01-03T03:00:56.848Z,98.4
2018-01-03T03:01:57.503Z,98.5
2018-01-03T03:02:58.159Z,99.8
2018-01-03T03:03:58.818Z,99.4
2018-01-03T03:04:59.478Z,99.1
2018-01-03T03:06:00.141Z,99.4
2018-01-03T03:07:00.835Z,100.0
2018-01-03T03:08:01.494Z,99.6
2018-01-03T03:09:02.155Z,100.0
2018-01-03T03:10:02.865Z,100.0
2018-01-03T03:11:03.522Z,99.4
2018-01-03T03:12:04.179Z,99.2
2018-01-03T03:13:04.837Z,99.7
2018-01-03T03:14:05.494Z,99.3
2018-01-03T03:15:06.202Z,98.4
2018-01-03T03:16:06.859Z,98.4
2018-01-03T03:17:07.518Z,99.3
2018-01-03T03:18:08.174Z,99.1
2018-01-03T03:19:08.833Z,98.2
2018-01-03T03:20:09.490Z,98.1
2018-01-03T03:21:10.148Z,97.5
2018-01-03T03:22:10.806Z,99.0
2018-01-03T03:23:11.465Z,99.3
2018-01-03T03:24:12.124Z,99.6
2018-01-03T03:25:12.781Z,99.6
2018-01-03T03:26:13.440Z,98.4
2018-01-03T03:27:14.100Z,98.1
2018-01-03T03:28:14.758Z,98.4
2018-01-03T03:29:15.416Z,97.2
2018-01-03T03:30:16.076Z,98.3
2018-01-03T03:31:16.736Z,98.0
2018-01-03T03:32:17.394Z,96.7
2018-01-03T03:33:18.053Z,97.3
2018-01-03T03:34:18.711Z,97.2
2018-01-03T03:35:19.371Z,96.5
2018-01-03T03:36:20.029Z,96.5
2018-01-03T03:37:20.689Z,96.7
2018-01-03T03:38:21.346Z,96.6
2018-01-03T03:39:22.007Z,97.0
2018-01-03T03:40:22.665Z,97.8
2018-01-03T03:41:23.324Z,97.1
2018-01-03T03:42:23.985Z,96.9
2018-01-03T03:43:24.642Z,96.9
2018-01-03T03:44:25.301Z,96.7
2018-01-03T03:45:25.958Z,96.4
2018-01-03T03:46:26.618Z,96.1
2018-01-03T03:47:27.277Z,96.7
2018-01-03T03:48:27.938Z,97.1
2018-01-03T03:49:28.595Z,96.7
2018-01-03T03:50:29.255Z,96.6
2018-01-03T03:51:29.916Z,96.8
2018-01-03T03:52:30.609Z,97.6
2018-01-03T03:53:31.269Z,96.7
2018-01-03T03:54:31.929Z,96.3
2018-01-03T03:55:32.591Z,96.5
2018-01-03T03:56:33.247Z,95.6
2018-01-03T03:57:33.907Z,95.2
2018-01-03T03:58:34.566Z,95.6
2018-01-03T03:59:35.227Z,95.5
2018-01-03T04:00:35.887Z,95.4
2018-01-03T04:01:36.546Z,95.6
2018-01-03T04:02:37.204Z,95.6
2018-01-03T04:03:37.865Z,95.6
2018-01-03T04:04:38.559Z,95.4
2018-01-03T04:05:39.218Z,95.1
2018-01-03T04:06:39.878Z,95.3
2018-01-03T04:07:40.538Z,95.3
2018-01-03T04:08:41.198Z,94.6
2018-01-03T04:09:41.858Z,94.7
2018-01-03T04:10:42.518Z,94.9
2018-01-03T04:11:43.176Z,95.1
2018-01-03T04:12:43.836Z,95.4
2018-01-03T04:13:44.496Z,95.1
2018-01-03T04:14:45.155Z,94.8
2018-01-03T04:15:45.813Z,94.9
2018-01-03T04:16:46.477Z,94.9
2018-01-03T04:17:47.132Z,95.4
2018-01-03T04:18:47.791Z,95.0
2018-01-03T04:19:48.452Z,95.3
2018-01-03T04:20:49.112Z,95.1
2018-01-03T04:21:49.770Z,95.3
2018-01-03T04:22:50.428Z,95.1
2018-01-03T04:23:51.088Z,94.8
2018-01-03T04:24:51.747Z,95.5
2018-01-03T04:25:52.453Z,94.9
2018-01-03T04:26:53.102Z,94.8
2018-01-03T04:27:53.760Z,94.9
2018-01-03T04:28:54.420Z,94.4
2018-01-03T04:29:55.080Z,95.3
2018-01-03T04:30:55.741Z,95.0
2018-01-03T04:31:56.401Z,94.9
2018-01-03T04:32:57.061Z,94.9
2018-01-03T04:33:57.722Z,94.9
2018-01-03T04:34:58.381Z,95.2
2018-01-03T04:35:59.041Z,95.9
2018-01-03T04:36:59.699Z,95.9
2018-01-03T04:38:00.359Z,96.2
2018-01-03T04:39:01.019Z,96.7
2018-01-03T04:40:01.702Z,97.0
2018-01-03T04:41:02.338Z,97.6
2018-01-03T04:42:02.998Z,97.5
2018-01-03T04:43:03.656Z,98.2
2018-01-03T04:44:04.315Z,98.3
2018-01-03T04:45:04.974Z,99.3
2018-01-03T04:46:05.632Z,99.3
2018-01-03T04:47:06.291Z,99.5
2018-01-03T04:48:06.988Z,99.7
2018-01-03T04:49:07.649Z,100.0
2018-01-03T04:50:08.310Z,100.0
2018-01-03T04:51:08.972Z,100.0
2018-01-03T04:52:09.632Z,100.0
2018-01-03T04:53:10.294Z,100.0
2018-01-03T04:54:10.953Z,100.0
2018-01-03T04:55:11.614Z,100.0
2018-01-03T04:56:12.273Z,100.0
2018-01-03T04:57:12.932Z,100.0
2018-01-03T04:58:13.593Z,100.0
2018-01-03T04:59:14.289Z,100.0
2018-01-03T05:00:14.985Z,100.0
2018-01-03T05:01:15.646Z,100.0
2018-01-03T05:02:16.306Z,100.0
2018-01-03T05:03:16.967Z,100.0
2018-01-03T05:04:17.626Z,100.0
2018-01-03T05:05:18.288Z,100.0
2018-01-03T05:06:18.950Z,100.0
2018-01-03T05:07:19.610Z,100.0
2018-01-03T05:08:20.270Z,100.0
2018-01-03T05:09:20.932Z,100.0
2018-01-03T05:10:21.592Z,100.0
2018-01-03T05:11:22.249Z,100.0
2018-01-03T05:12:22.909Z,100.0
2018-01-03T05:13:23.568Z,100.0
2018-01-03T05:14:24.228Z,100.0
2018-01-03T05:15:24.888Z,100.0
2018-01-03T05:16:25.547Z,100.0
2018-01-03T05:17:26.206Z,100.0
2018-01-03T05:18:26.865Z,100.0
2018-01-03T05:19:27.524Z,100.0
2018-01-03T05:20:28.184Z,100.0
2018-01-03T05:21:28.880Z,100.0
2018-01-03T05:22:29.542Z,100.0
2018-01-03T05:23:30.203Z,100.0
2018-01-03T05:24:30.862Z,100.0
2018-01-03T05:25:31.522Z,99.7
2018-01-03T05:26:32.182Z,100.0
2018-01-03T05:27:32.840Z,99.9
2018-01-03T05:28:33.500Z,99.6
2018-01-03T05:29:34.195Z,99.4
2018-01-03T05:30:34.856Z,99.6
2018-01-03T05:31:35.516Z,99.6
2018-01-03T05:32:36.177Z,99.2
2018-01-03T05:33:36.837Z,99.1
2018-01-03T05:34:37.497Z,99.9
2018-01-03T05:35:38.156Z,99.2
2018-01-03T05:36:38.815Z,99.3
2018-01-03T05:37:39.476Z,99.6
2018-01-03T05:38:40.133Z,99.9
2018-01-03T05:39:40.793Z,99.7
2018-01-03T05:40:41.452Z,99.5
2018-01-03T05:41:42.112Z,99.0
2018-01-03T05:42:42.773Z,99.4
2018-01-03T05:43:43.433Z,100.0
2018-01-03T05:44:44.094Z,100.0
2018-01-03T05:45:44.754Z,99.4
2018-01-03T05:46:45.452Z,100.0
2018-01-03T05:47:46.113Z,100.0
2018-01-03T05:48:46.774Z,100.0
2018-01-03T05:49:47.435Z,100.0
2018-01-03T05:50:48.098Z,100.0
2018-01-03T05:51:48.755Z,100.0
2018-01-03T05:52:49.415Z,100.0
2018-01-03T05:53:50.113Z,100.0
2018-01-03T05:54:50.780Z,100.0
2018-01-03T05:55:51.435Z,100.0
2018-01-03T05:56:52.095Z,100.0
2018-01-03T05:57:52.757Z,100.0
2018-01-03T05:58:53.452Z,100.0
2018-01-03T05:59:54.112Z,100.0
2018-01-03T06:00:54.774Z,100.0
2018-01-03T06:01:55.436Z,100.0
2018-01-03T06:02:56.133Z,100.0
2018-01-03T06:03:56.794Z,100.0
2018-01-03T06:04:57.457Z,100.0
2018-01-03T06:05:58.121Z,100.0
2018-01-03T06:06:58.776Z,100.0
2018-01-03T06:07:59.436Z,100.0
2018-01-03T06:09:00.095Z,100.0
2018-01-03T06:10:00.755Z,100.0
2018-01-03T06:11:01.416Z,100.0
2018-01-03T06:12:02.076Z,100.0
2018-01-03T06:13:02.737Z,100.0
2018-01-03T06:14:03.397Z,100.0
2018-01-03T06:15:04.057Z,100.0
2018-01-03T06:16:04.718Z,100.0
2018-01-03T06:17:05.377Z,100.0
2018-01-03T06:18:06.036Z,100.0
2018-01-03T06:19:06.696Z,100.0
2018-01-03T06:20:07.356Z,100.0
2018-01-03T06:21:08.016Z,100.0
2018-01-03T06:22:08.675Z,100.0
2018-01-03T06:23:09.335Z,100.0
2018-01-03T06:24:09.996Z,100.0
2018-01-03T06:25:10.656Z,100.0
2018-01-03T06:26:11.315Z,100.0
2018-01-03T06:27:11.974Z,100.0
2018-01-03T06:28:12.634Z,100.0
2018-01-03T06:29:13.295Z,100.0
2018-01-03T06:30:13.955Z,100.0
2018-01-03T06:31:14.615Z,100.0
2018-01-03T06:32:15.275Z,100.0
2018-01-03T06:33:15.934Z,100.0
2018-01-03T06:34:16.593Z,100.0
2018-01-03T06:35:17.254Z,100.0
2018-01-03T06:36:17.913Z,100.0
2018-01-03T06:37:18.574Z,100.0
2018-01-03T06:38:19.234Z,100.0
2018-01-03T06:39:19.932Z,100.0
2018-01-03T06:40:20.593Z,100.0
2018-01-03T06:41:21.253Z,100.0
2018-01-03T06:42:21.913Z,100.0
2018-01-03T06:43:22.573Z,100.0
2018-01-03T06:44:23.233Z,100.0
2018-01-03T06:45:23.894Z,100.0
2018-01-03T06:46:24.554Z,100.0
2018-01-03T06:47:25.214Z,100.0
2018-01-03T06:48:25.912Z,100.0
2018-01-03T06:49:26.575Z,100.0
2018-01-03T06:50:27.273Z,100.0
2018-01-03T06:51:27.935Z,100.0
2018-01-03T06:52:28.596Z,99.9
2018-01-03T06:53:29.257Z,100.0
2018-01-03T06:54:29.917Z,99.2
2018-01-03T06:55:30.578Z,100.0
2018-01-03T06:56:31.238Z,100.0
2018-01-03T06:57:31.900Z,100.0
2018-01-03T06:58:32.559Z,100.0
2018-01-03T06:59:33.220Z,100.0
2018-01-03T07:00:33.884Z,100.0
2018-01-03T07:01:34.540Z,100.0
2018-01-03T07:02:35.202Z,100.0
2018-01-03T07:03:35.863Z,100.0
2018-01-03T07:04:36.524Z,100.0
2018-01-03T07:05:37.185Z,100.0
2018-01-03T07:06:37.845Z,100.0
2018-01-03T07:07:38.506Z,100.0
2018-01-03T07:08:39.167Z,100.0
2018-01-03T07:09:39.829Z,100.0
2018-01-03T07:10:40.491Z,100.0
2018-01-03T07:11:41.150Z,100.0
2018-01-03T07:12:41.813Z,100.0
2018-01-03T07:13:42.476Z,100.0
2018-01-03T07:14:43.137Z,100.0
2018-01-03T07:15:43.798Z,100.0
2018-01-03T07:16:44.497Z,100.0
2018-01-03T07:17:45.154Z,100.0
2018-01-03T07:18:45.815Z,100.0
2018-01-03T07:19:46.477Z,100.0
2018-01-03T07:20:47.140Z,99.7
2018-01-03T07:21:47.800Z,99.5
2018-01-03T07:22:48.461Z,99.0
2018-01-03T07:23:49.124Z,98.9
2018-01-03T07:24:49.783Z,99.1
2018-01-03T07:25:50.451Z,98.8
2018-01-03T07:26:51.107Z,97.6
2018-01-03T07:27:51.768Z,97.2
2018-01-03T07:28:52.507Z,96.6
2018-01-03T07:29:53.098Z,96.2
2018-01-03T07:30:53.759Z,95.3
2018-01-03T07:31:54.417Z,95.5
2018-01-03T07:32:55.076Z,94.6
2018-01-03T07:33:55.737Z,94.6
2018-01-03T07:34:56.395Z,93.6
2018-01-03T07:35:57.057Z,93.9
2018-01-03T07:36:57.717Z,93.2
2018-01-03T07:37:58.377Z,93.1
2018-01-03T07:38:59.039Z,93.1
2018-01-03T07:39:59.713Z,92.3
2018-01-03T07:41:00.360Z,92.2
2018-01-03T07:42:01.056Z,91.8
2018-01-03T07:43:01.718Z,91.0
2018-01-03T07:44:02.378Z,91.8
2018-01-03T07:45:03.040Z,91.6
2018-01-03T07:46:03.700Z,92.3
2018-01-03T07:47:04.362Z,91.8
2018-01-03T07:48:05.077Z,92.1
2018-01-03T07:49:05.737Z,92.3
2018-01-03T07:50:06.398Z,92.4
2018-01-03T07:51:07.060Z,92.3
2018-01-03T07:52:07.722Z,92.9
2018-01-03T07:53:08.383Z,92.5
2018-01-03T07:54:09.081Z,91.5
2018-01-03T07:55:09.743Z,91.3
2018-01-03T07:56:10.406Z,90.6
2018-01-03T07:57:11.067Z,90.6
2018-01-03T07:58:11.730Z,90.7
2018-01-03T07:59:12.392Z,90.7
2018-01-03T08:00:13.055Z,90.2
2018-01-03T08:01:13.717Z,90.3
2018-01-03T08:02:14.380Z,90.2
2018-01-03T08:03:15.093Z,89.7
2018-01-03T08:04:15.757Z,89.4
2018-01-03T08:05:16.421Z,89.8
2018-01-03T08:06:17.086Z,89.1
2018-01-03T08:07:17.845Z,88.6
2018-01-03T08:08:18.446Z,88.2
2018-01-03T08:09:19.109Z,88.1
2018-01-03T08:10:19.771Z,87.8
2018-01-03T08:11:20.434Z,87.8
2018-01-03T08:12:21.094Z,88.1
2018-01-03T08:13:21.758Z,87.8
2018-01-03T08:14:22.418Z,87.3
2018-01-03T08:15:23.081Z,87.2
2018-01-03T08:16:23.743Z,87.4
2018-01-03T08:17:24.407Z,87.7
2018-01-03T08:18:25.073Z,87.8
2018-01-03T08:19:25.740Z,87.8
2018-01-03T08:20:26.399Z,88.5
2018-01-03T08:21:27.062Z,88.3
2018-01-03T08:22:27.723Z,88.7
2018-01-03T08:23:28.387Z,88.5
2018-01-03T08:24:29.051Z,88.7
2018-01-03T08:25:29.715Z,88.5
2018-01-03T08:26:30.377Z,88.5
2018-01-03T08:27:31.042Z,88.6
2018-01-03T08:28:31.704Z,88.7
2018-01-03T08:29:32.369Z,89.1
2018-01-03T08:30:33.034Z,89.1
2018-01-03T08:31:33.702Z,89.3
2018-01-03T08:32:34.363Z,89.1
2018-01-03T08:33:35.028Z,89.6
2018-01-03T08:34:35.692Z,89.8
2018-01-03T08:35:36.357Z,89.7
2018-01-03T08:36:37.021Z,89.6
2018-01-03T08:37:37.685Z,89.6
2018-01-03T08:38:38.349Z,89.9
2018-01-03T08:39:39.013Z,89.8
2018-01-03T08:40:39.684Z,89.5
2018-01-03T08:41:40.340Z,89.7
2018-01-03T08:42:41.004Z,89.7
2018-01-03T08:43:41.666Z,89.8
2018-01-03T08:44:42.330Z,89.7
2018-01-03T08:45:42.993Z,90.1
2018-01-03T08:46:43.664Z,89.6
2018-01-03T08:47:44.325Z,89.4
2018-01-03T08:48:44.989Z,89.3
2018-01-03T08:49:45.653Z,89.4
2018-01-03T08:50:46.354Z,89.8
2018-01-03T08:51:47.019Z,89.4
2018-01-03T08:52:47.683Z,89.7
2018-01-03T08:53:48.348Z,90.3
2018-01-03T08:54:49.013Z,90.0
2018-01-03T08:55:49.680Z,89.7
2018-01-03T08:56:50.344Z,89.8
2018-01-03T08:57:51.009Z,89.7
2018-01-03T08:58:51.673Z,89.8
2018-01-03T08:59:52.338Z,89.8
2018-01-03T09:00:53.003Z,90.0
2018-01-03T09:01:53.670Z,89.7
2018-01-03T09:02:54.337Z,89.8
2018-01-03T09:03:55.002Z,89.8
2018-01-03T09:04:55.666Z,89.4
2018-01-03T09:05:56.332Z,89.7
2018-01-03T09:06:56.999Z,89.7
2018-01-03T09:07:57.664Z,89.2
2018-01-03T09:08:58.327Z,88.9
2018-01-03T09:09:58.992Z,89.2
2018-01-03T09:10:59.656Z,89.3
2018-01-03T09:12:00.321Z,88.7
2018-01-03T09:13:00.985Z,88.9
2018-01-03T09:14:01.652Z,89.2
2018-01-03T09:15:02.319Z,88.8
2018-01-03T09:16:02.983Z,88.5
2018-01-03T09:17:03.650Z,88.5
2018-01-03T09:18:04.316Z,88.0
2018-01-03T09:19:04.986Z,87.8
2018-01-03T09:20:05.650Z,88.2
2018-01-03T09:21:06.315Z,87.8
2018-01-03T09:22:06.980Z,88.1
2018-01-03T09:23:07.647Z,87.3
2018-01-03T09:24:08.316Z,87.3
2018-01-03T09:25:08.983Z,87.7
2018-01-03T09:26:09.650Z,87.3
2018-01-03T09:27:10.317Z,86.8
2018-01-03T09:28:10.982Z,86.9
2018-01-03T09:29:11.649Z,87.0
2018-01-03T09:30:12.351Z,86.7
2018-01-03T09:31:13.017Z,86.7
2018-01-03T09:32:13.683Z,86.9
2018-01-03T09:33:14.349Z,87.0
2018-01-03T09:34:15.052Z,87.1
2018-01-03T09:35:15.718Z,87.2
2018-01-03T09:36:16.387Z,88.3
2018-01-03T09:37:17.053Z,90.3
2018-01-03T09:38:17.719Z,90.8
2018-01-03T09:39:18.392Z,90.6
2018-01-03T09:40:19.112Z,89.9
2018-01-03T09:41:19.748Z,90.6
2018-01-03T09:42:20.419Z,90.2
2018-01-03T09:43:21.083Z,91.2
2018-01-03T09:44:21.755Z,89.6
2018-01-03T09:45:22.418Z,89.2
2018-01-03T09:46:23.084Z,89.6
2018-01-03T09:47:23.755Z,88.8
2018-01-03T09:48:24.421Z,88.7
2018-01-03T09:49:25.087Z,88.7
2018-01-03T09:50:25.790Z,88.8
2018-01-03T09:51:26.458Z,87.6
2018-01-03T09:52:27.125Z,87.9
2018-01-03T09:53:27.792Z,86.5
2018-01-03T09:54:28.463Z,86.1
2018-01-03T09:55:29.122Z,85.7
2018-01-03T09:56:29.789Z,85.3
2018-01-03T09:57:30.455Z,85.1
2018-01-03T09:58:31.123Z,83.4
2018-01-03T09:59:31.792Z,83.5
2018-01-03T10:00:32.459Z,83.8
2018-01-03T10:01:33.125Z,83.5
2018-01-03T10:02:33.794Z,83.3
2018-01-03T10:03:34.461Z,82.9
2018-01-03T10:04:35.132Z,83.3
2018-01-03T10:05:35.797Z,82.7
2018-01-03T10:06:36.466Z,82.5
2018-01-03T10:07:37.134Z,83.0
2018-01-03T10:08:37.803Z,81.7
2018-01-03T10:09:38.471Z,81.0
2018-01-03T10:10:39.139Z,79.9
2018-01-03T10:11:39.807Z,79.7
2018-01-03T10:12:40.475Z,79.1
2018-01-03T10:13:41.145Z,78.4
2018-01-03T10:14:41.814Z,78.4
2018-01-03T10:15:42.482Z,78.4
2018-01-03T10:16:43.151Z,77.9
2018-01-03T10:17:43.818Z,77.9
2018-01-03T10:18:44.484Z,78.0
2018-01-03T10:19:45.151Z,77.4
2018-01-03T10:20:45.817Z,77.2
2018-01-03T10:21:46.487Z,77.9
2018-01-03T10:22:47.157Z,78.4
2018-01-03T10:23:47.824Z,79.1
2018-01-03T10:24:48.489Z,79.5
2018-01-03T10:25:49.160Z,79.6
2018-01-03T10:26:49.823Z,80.8
2018-01-03T10:27:50.488Z,84.1
2018-01-03T10:28:51.152Z,91.2
2018-01-03T10:29:51.854Z,92.9
2018-01-03T10:30:52.520Z,94.6
2018-01-03T10:31:53.248Z,97.9
2018-01-03T10:32:53.841Z,99.5
2018-01-03T10:33:54.505Z,100.0
2018-01-03T10:34:55.170Z,100.0
2018-01-03T10:35:55.835Z,100.0
2018-01-03T10:36:56.501Z,100.0
2018-01-03T10:37:57.167Z,100.0
2018-01-03T10:38:57.834Z,100.0
2018-01-03T10:39:58.504Z,100.0
2018-01-03T10:40:59.165Z,100.0
2018-01-03T10:41:59.831Z,100.0
2018-01-03T10:43:00.496Z,100.0
2018-01-03T10:44:01.163Z,100.0
2018-01-03T10:45:01.830Z,100.0
2018-01-03T10:46:02.492Z,100.0
2018-01-03T10:47:03.160Z,100.0
2018-01-03T10:48:03.826Z,100.0
2018-01-03T10:49:04.490Z,100.0
2018-01-03T10:50:05.155Z,100.0
2018-01-03T10:51:05.855Z,100.0
2018-01-03T10:52:06.521Z,100.0
2018-01-03T10:53:07.186Z,100.0
2018-01-03T10:54:07.849Z,100.0
2018-01-03T10:55:08.513Z,100.0
2018-01-03T10:56:09.178Z,100.0
2018-01-03T10:57:09.841Z,100.0
2018-01-03T10:58:10.508Z,100.0
2018-01-03T10:59:11.173Z,100.0
2018-01-03T11:00:11.887Z,100.0
2018-01-03T11:01:12.555Z,100.0
2018-01-03T11:02:13.215Z,99.7
2018-01-03T11:03:13.880Z,100.0
2018-01-03T11:04:14.542Z,100.0
2018-01-03T11:05:15.207Z,98.2
2018-01-03T11:06:15.872Z,97.6
2018-01-03T11:07:16.537Z,98.3
2018-01-03T11:08:17.198Z,99.2
2018-01-03T11:09:17.861Z,98.3
2018-01-03T11:10:18.523Z,97.9
2018-01-03T11:11:19.186Z,97.5
2018-01-03T11:12:19.850Z,98.5
2018-01-03T11:13:20.514Z,99.8
2018-01-03T11:14:21.175Z,100.0
2018-01-03T11:15:21.840Z,100.0
2018-01-03T11:16:22.504Z,100.0
2018-01-03T11:17:23.202Z,99.9
2018-01-03T11:18:23.868Z,100.0
2018-01-03T11:19:24.533Z,100.0
2018-01-03T11:20:25.197Z,100.0
2018-01-03T11:21:25.864Z,100.0
2018-01-03T11:22:26.526Z,100.0
2018-01-03T11:23:27.190Z,100.0
2018-01-03T11:24:27.852Z,99.5
2018-01-03T11:25:28.521Z,100.0
2018-01-03T11:26:29.183Z,100.0
2018-01-03T11:27:29.843Z,100.0
2018-01-03T11:28:30.504Z,99.0
2018-01-03T11:29:31.176Z,99.1
2018-01-03T11:30:31.835Z,99.0
2018-01-03T11:31:32.499Z,99.1
2018-01-03T11:32:33.162Z,99.9
2018-01-03T11:33:33.827Z,99.7
2018-01-03T11:34:34.492Z,100.0
2018-01-03T11:35:35.160Z,98.9
2018-01-03T11:36:35.855Z,97.3
2018-01-03T11:37:36.519Z,97.3
2018-01-03T11:38:37.182Z,98.6
2018-01-03T11:39:37.846Z,97.8
2018-01-03T11:40:38.510Z,97.9
2018-01-03T11:41:39.173Z,97.6
2018-01-03T11:42:39.838Z,96.2
2018-01-03T11:43:40.504Z,95.9
2018-01-03T11:44:41.168Z,96.7
2018-01-03T11:45:41.836Z,95.6
2018-01-03T11:46:42.501Z,96.6
2018-01-03T11:47:43.204Z,95.2
2018-01-03T11:48:43.870Z,95.2
2018-01-03T11:49:44.570Z,95.0
2018-01-03T11:50:45.486Z,93.7
2018-01-03T11:51:46.151Z,94.0
2018-01-03T11:52:46.818Z,95.2
2018-01-03T11:53:47.484Z,93.3
2018-01-03T11:54:48.147Z,93.2
2018-01-03T11:55:48.810Z,93.0
2018-01-03T11:56:49.476Z,93.4
2018-01-03T11:57:50.141Z,92.2
2018-01-03T11:58:50.804Z,91.5
2018-01-03T11:59:51.468Z,92.2
2018-01-03T12:00:52.130Z,91.9
2018-01-03T12:01:52.794Z,91.8
2018-01-03T12:02:53.460Z,91.3
2018-01-03T12:03:54.127Z,90.6
2018-01-03T12:04:54.791Z,90.9
2018-01-03T12:05:55.456Z,90.7
2018-01-03T12:06:56.119Z,90.6
2018-01-03T12:07:56.785Z,91.3
2018-01-03T12:08:57.447Z,90.5
2018-01-03T12:09:58.112Z,90.1
2018-01-03T12:10:58.776Z,90.1
2018-01-03T12:11:59.441Z,89.4
2018-01-03T12:13:00.108Z,89.0
2018-01-03T12:14:00.775Z,88.9
2018-01-03T12:15:01.440Z,88.5
2018-01-03T12:16:02.105Z,88.9
2018-01-03T12:17:02.770Z,87.0
2018-01-03T12:18:03.435Z,87.2
2018-01-03T12:19:04.102Z,87.5
2018-01-03T12:20:04.765Z,87.1
2018-01-03T12:21:05.431Z,87.2
2018-01-03T12:22:06.099Z,86.7
2018-01-03T12:23:06.767Z,86.7
2018-01-03T12:24:07.428Z,87.0
2018-01-03T12:25:08.095Z,87.4
2018-01-03T12:26:08.843Z,85.7
2018-01-03T12:27:09.466Z,85.0
2018-01-03T12:28:10.130Z,84.9
2018-01-03T12:29:10.794Z,85.2
2018-01-03T12:30:11.458Z,85.3
2018-01-03T12:31:12.124Z,85.1
2018-01-03T12:32:12.790Z,85.4
2018-01-03T12:33:13.455Z,84.9
2018-01-03T12:34:14.119Z,84.6
2018-01-03T12:35:14.784Z,85.1
2018-01-03T12:36:15.465Z,84.8
2018-01-03T12:37:16.116Z,84.1
2018-01-03T12:38:16.782Z,83.9
2018-01-03T12:39:17.446Z,84.2
2018-01-03T12:40:18.109Z,83.5
2018-01-03T12:41:18.774Z,83.6
2018-01-03T12:42:19.441Z,83.3
2018-01-03T12:43:20.107Z,83.4
2018-01-03T12:44:20.772Z,83.3
2018-01-03T12:45:21.435Z,82.9
2018-01-03T12:46:22.101Z,83.2
2018-01-03T12:47:22.765Z,83.2
2018-01-03T12:48:23.430Z,83.0
2018-01-03T12:49:24.095Z,83.1
2018-01-03T12:50:24.758Z,84.1
2018-01-03T12:51:25.423Z,83.2
2018-01-03T12:52:26.093Z,83.5
2018-01-03T12:53:26.788Z,85.8
2018-01-03T12:54:27.457Z,85.7
2018-01-03T12:55:28.123Z,85.2
2018-01-03T12:56:28.784Z,86.4
2018-01-03T12:57:29.448Z,86.2
2018-01-03T12:58:30.113Z,86.5
2018-01-03T12:59:30.779Z,86.0
2018-01-03T13:00:31.445Z,85.4
2018-01-03T13:01:32.111Z,85.7
2018-01-03T13:02:32.776Z,86.1
2018-01-03T13:03:33.438Z,85.7
2018-01-03T13:04:34.106Z,85.2
2018-01-03T13:05:34.773Z,85.1
2018-01-03T13:06:35.438Z,85.2
2018-01-03T13:07:36.102Z,85.1
2018-01-03T13:08:36.768Z,85.2
2018-01-03T13:09:37.432Z,85.2
2018-01-03T13:10:38.097Z,85.1
2018-01-03T13:11:38.760Z,85.2
2018-01-03T13:12:39.460Z,85.2
2018-01-03T13:13:40.122Z,84.7
2018-01-03T13:14:40.785Z,84.9
2018-01-03T13:15:41.452Z,85.3
2018-01-03T13:16:42.153Z,83.9
2018-01-03T13:17:42.816Z,84.3
2018-01-03T13:18:43.480Z,83.7
2018-01-03T13:19:44.148Z,84.4
2018-01-03T13:20:44.814Z,84.6
2018-01-03T13:21:45.478Z,84.1